sensor_id;sensor_type;location;lat;lon;timestamp;pressure;altitude;pressure_sealevel;temperature;humidity
9419;BME280;4748;50.802;7.132;2022-07-29T03:31:03;100811.63;;;19.20;100.00
9419;BME280;4748;50.802;7.132;2022-07-29T03:33:29;100807.81;;;19.26;100.00
9419;BME280;4748;50.802;7.132;2022-07-29T03:35:55;100812.75;;;19.19;100.00
9419;BME280;4748;50.802;7.132;2022-07-29T03:38:24;100817.91;;;19.21;100.00
9419;BME280;4748;50.802;7.132;2022-07-29T03:40:53;100816.53;;;19.23;100.00
9419;BME280;4748;50.802;7.132;2022-07-29T03:43:23;100817.88;;;19.26;100.00
9419;BME280;4748;50.802;7.132;2022-07-29T03:45:52;100814.63;;;19.29;100.00
9419;BME280;4748;50.802;7.132;2022-07-29T03:48:21;100817.06;;;19.30;100.00
9419;BME280;4748;50.802;7.132;2022-07-29T03:50:47;100809.47;;;19.17;100.00
9419;BME280;4748;50.802;7.132;2022-07-29T03:53:13;100810.31;;;19.18;100.00
9419;BME280;4748;50.802;7.132;2022-07-29T03:55:45;100811.63;;;19.20;100.00
9419;BME280;4748;50.802;7.132;2022-07-29T03:58:12;100811.09;;;19.23;100.00
9419;BME280;4748;50.802;7.132;2022-07-29T04:00:38;100807.03;;;19.26;100.00
9419;BME280;4748;50.802;7.132;2022-07-29T04:03:04;100813.81;;;19.28;100.00
9419;BME280;4748;50.802;7.132;2022-07-29T04:05:30;100814.38;;;19.25;100.00
9419;BME280;4748;50.802;7.132;2022-07-29T04:07:55;100817.91;;;19.21;100.00
9419;BME280;4748;50.802;7.132;2022-07-29T04:10:21;100817.34;;;19.14;100.00
9419;BME280;4748;50.802;7.132;2022-07-29T04:12:48;100813.81;;;19.23;100.00
9419;BME280;4748;50.802;7.132;2022-07-29T04:15:14;100816.25;;;19.20;100.00
9419;BME280;4748;50.802;7.132;2022-07-29T04:17:39;100821.16;;;19.23;100.00
9419;BME280;4748;50.802;7.132;2022-07-29T04:20:05;100820.06;;;19.19;100.00
9419;BME280;4748;50.802;7.132;2022-07-29T04:22:31;100822.78;;;19.24;100.00
9419;BME280;4748;50.802;7.132;2022-07-29T04:24:56;100828.75;;;19.26;100.00
9419;BME280;4748;50.802;7.132;2022-07-29T04:27:21;100826.03;;;19.26;100.00
9419;BME280;4748;50.802;7.132;2022-07-29T04:29:47;100838.25;;;19.28;100.00
9419;BME280;4748;50.802;7.132;2022-07-29T04:32:12;100841.50;;;19.30;100.00
9419;BME280;4748;50.802;7.132;2022-07-29T04:34:38;100846.41;;;19.38;100.00
9419;BME280;4748;50.802;7.132;2022-07-29T04:37:03;100846.69;;;19.37;100.00
9419;BME280;4748;50.802;7.132;2022-07-29T04:39:28;100844.75;;;19.47;100.00
9419;BME280;4748;50.802;7.132;2022-07-29T04:41:54;100849.66;;;19.55;100.00
9419;BME280;4748;50.802;7.132;2022-07-29T04:44:19;100844.19;;;19.60;100.00
9419;BME280;4748;50.802;7.132;2022-07-29T04:46:44;100843.09;;;19.66;100.00
9419;BME280;4748;50.802;7.132;2022-07-29T04:49:10;100845.28;;;19.69;100.00
9419;BME280;4748;50.802;7.132;2022-07-29T04:51:35;100845.28;;;19.74;100.00
9419;BME280;4748;50.802;7.132;2022-07-29T04:54:01;100844.44;;;19.78;100.00
9419;BME280;4748;50.802;7.132;2022-07-29T04:56:27;100832.19;;;19.86;100.00
9419;BME280;4748;50.802;7.132;2022-07-29T04:58:52;100848.50;;;19.86;100.00
9419;BME280;4748;50.802;7.132;2022-07-29T05:01:18;100846.59;;;20.06;100.00
9419;BME280;4748;50.802;7.132;2022-07-29T05:03:43;100844.09;;;20.19;100.00
9419;BME280;4748;50.802;7.132;2022-07-29T05:06:10;100849.47;;;20.34;99.20
9419;BME280;4748;50.802;7.132;2022-07-29T05:08:36;100848.97;;;20.22;100.00
9419;BME280;4748;50.802;7.132;2022-07-29T05:11:02;100849.25;;;20.26;98.55
9419;BME280;4748;50.802;7.132;2022-07-29T05:13:27;100856.00;;;20.33;97.92
9419;BME280;4748;50.802;7.132;2022-07-29T05:15:53;100851.56;;;20.52;96.08
9419;BME280;4748;50.802;7.132;2022-07-29T05:18:19;100856.75;;;20.44;96.96
9419;BME280;4748;50.802;7.132;2022-07-29T05:20:44;100858.63;;;20.53;96.17
9419;BME280;4748;50.802;7.132;2022-07-29T05:23:09;100874.34;;;20.66;95.55
9419;BME280;4748;50.802;7.132;2022-07-29T05:25:37;100869.47;;;20.73;93.59
9419;BME280;4748;50.802;7.132;2022-07-29T05:28:03;100878.94;;;20.80;93.61
9419;BME280;4748;50.802;7.132;2022-07-29T05:30:28;100877.94;;;21.09;92.45
9419;BME280;4748;50.802;7.132;2022-07-29T05:32:54;100879.09;;;21.37;90.73
9419;BME280;4748;50.802;7.132;2022-07-29T05:35:19;100878.06;;;21.66;88.44
9419;BME280;4748;50.802;7.132;2022-07-29T05:37:44;100883.75;;;21.98;87.33
9419;BME280;4748;50.802;7.132;2022-07-29T05:40:10;100877.47;;;22.25;84.67
9419;BME280;4748;50.802;7.132;2022-07-29T05:42:35;100878.00;;;22.69;82.81
9419;BME280;4748;50.802;7.132;2022-07-29T05:45:02;100885.16;;;23.07;80.21
9419;BME280;4748;50.802;7.132;2022-07-29T05:47:28;100900.34;;;23.49;76.82
9419;BME280;4748;50.802;7.132;2022-07-29T05:49:53;100904.75;;;23.45;76.91
9419;BME280;4748;50.802;7.132;2022-07-29T05:52:20;100910.31;;;23.59;76.10
9419;BME280;4748;50.802;7.132;2022-07-29T05:54:45;100912.91;;;22.95;79.36
9419;BME280;4748;50.802;7.132;2022-07-29T05:57:18;100902.53;;;22.74;76.20
9419;BME280;4748;50.802;7.132;2022-07-29T05:59:44;100911.72;;;22.59;80.71
9419;BME280;4748;50.802;7.132;2022-07-29T06:02:09;100926.78;;;22.34;81.13
9419;BME280;4748;50.802;7.132;2022-07-29T06:04:35;100929.56;;;22.29;80.77
9419;BME280;4748;50.802;7.132;2022-07-29T06:07:00;100926.66;;;22.15;81.93
9419;BME280;4748;50.802;7.132;2022-07-29T06:09:26;100934.38;;;22.08;81.90
9419;BME280;4748;50.802;7.132;2022-07-29T06:11:52;100931.88;;;22.12;80.62
9419;BME280;4748;50.802;7.132;2022-07-29T06:14:17;100941.91;;;22.16;81.05
9419;BME280;4748;50.802;7.132;2022-07-29T06:16:43;100946.38;;;22.07;81.74
9419;BME280;4748;50.802;7.132;2022-07-29T06:19:08;100947.66;;;22.15;81.17
9419;BME280;4748;50.802;7.132;2022-07-29T06:21:34;100940.22;;;21.97;81.74
9419;BME280;4748;50.802;7.132;2022-07-29T06:23:59;100939.25;;;22.11;80.34
9419;BME280;4748;50.802;7.132;2022-07-29T06:26:24;100942.59;;;22.03;80.55
9419;BME280;4748;50.802;7.132;2022-07-29T06:28:50;100943.03;;;22.15;80.51
9419;BME280;4748;50.802;7.132;2022-07-29T06:31:15;100942.97;;;22.25;78.59
9419;BME280;4748;50.802;7.132;2022-07-29T06:33:40;100952.84;;;22.45;78.46
9419;BME280;4748;50.802;7.132;2022-07-29T06:36:06;100953.72;;;22.63;77.14
9419;BME280;4748;50.802;7.132;2022-07-29T06:38:33;100951.91;;;23.01;75.52
9419;BME280;4748;50.802;7.132;2022-07-29T06:40:59;100943.78;;;23.69;72.20
9419;BME280;4748;50.802;7.132;2022-07-29T06:43:25;100948.31;;;23.92;70.26
9419;BME280;4748;50.802;7.132;2022-07-29T06:45:51;100938.31;;;24.01;67.75
9419;BME280;4748;50.802;7.132;2022-07-29T06:48:17;100943.59;;;24.11;66.82
9419;BME280;4748;50.802;7.132;2022-07-29T06:50:42;100943.69;;;24.51;66.64
9419;BME280;4748;50.802;7.132;2022-07-29T06:53:07;100935.19;;;24.79;65.90
9419;BME280;4748;50.802;7.132;2022-07-29T06:55:33;100935.13;;;25.19;64.84
9419;BME280;4748;50.802;7.132;2022-07-29T06:57:58;100932.84;;;24.86;65.24
9419;BME280;4748;50.802;7.132;2022-07-29T07:00:25;100937.91;;;24.79;65.40
9419;BME280;4748;50.802;7.132;2022-07-29T07:02:50;100937.72;;;24.62;65.61
9419;BME280;4748;50.802;7.132;2022-07-29T07:05:15;100934.97;;;24.49;66.24
9419;BME280;4748;50.802;7.132;2022-07-29T07:07:41;100934.25;;;24.43;66.48
9419;BME280;4748;50.802;7.132;2022-07-29T07:10:06;100931.13;;;24.36;66.10
9419;BME280;4748;50.802;7.132;2022-07-29T07:12:32;100935.88;;;24.44;64.70
9419;BME280;4748;50.802;7.132;2022-07-29T07:14:57;100941.56;;;24.61;65.95
9419;BME280;4748;50.802;7.132;2022-07-29T07:17:22;100940.06;;;24.55;64.44
9419;BME280;4748;50.802;7.132;2022-07-29T07:19:48;100937.41;;;24.64;65.09
9419;BME280;4748;50.802;7.132;2022-07-29T07:22:13;100937.09;;;24.65;63.29
9419;BME280;4748;50.802;7.132;2022-07-29T07:24:38;100929.91;;;24.69;64.99
9419;BME280;4748;50.802;7.132;2022-07-29T07:27:04;100929.06;;;24.68;65.37
9419;BME280;4748;50.802;7.132;2022-07-29T07:29:29;100934.44;;;24.60;66.43
9419;BME280;4748;50.802;7.132;2022-07-29T07:31:54;100935.16;;;24.39;67.45
9419;BME280;4748;50.802;7.132;2022-07-29T07:34:20;100932.13;;;24.40;66.44
9419;BME280;4748;50.802;7.132;2022-07-29T07:36:45;100938.09;;;24.56;66.93
9419;BME280;4748;50.802;7.132;2022-07-29T07:39:10;100943.19;;;24.75;65.94
9419;BME280;4748;50.802;7.132;2022-07-29T07:41:36;100941.66;;;24.69;65.79
9419;BME280;4748;50.802;7.132;2022-07-29T07:44:01;100937.81;;;24.57;66.90
9419;BME280;4748;50.802;7.132;2022-07-29T07:46:27;100938.50;;;24.63;65.78
9419;BME280;4748;50.802;7.132;2022-07-29T07:48:52;100936.19;;;24.56;66.06
9419;BME280;4748;50.802;7.132;2022-07-29T07:51:18;100933.41;;;24.29;67.72
9419;BME280;4748;50.802;7.132;2022-07-29T07:53:43;100923.91;;;24.40;69.67
9419;BME280;4748;50.802;7.132;2022-07-29T07:56:10;100936.28;;;24.51;69.04
9419;BME280;4748;50.802;7.132;2022-07-29T07:58:35;100925.94;;;24.75;68.17
9419;BME280;4748;50.802;7.132;2022-07-29T08:01:01;100936.19;;;24.69;68.52
9419;BME280;4748;50.802;7.132;2022-07-29T08:03:26;100937.69;;;24.75;68.94
9419;BME280;4748;50.802;7.132;2022-07-29T08:05:52;100930.31;;;24.76;69.36
9419;BME280;4748;50.802;7.132;2022-07-29T08:08:19;100932.63;;;24.82;68.44
9419;BME280;4748;50.802;7.132;2022-07-29T08:10:44;100928.13;;;25.00;66.57
9419;BME280;4748;50.802;7.132;2022-07-29T08:13:25;100922.75;;;25.08;63.86
9419;BME280;4748;50.802;7.132;2022-07-29T08:15:53;100924.31;;;25.71;64.47
9419;BME280;4748;50.802;7.132;2022-07-29T08:18:29;100926.63;;;25.64;62.67
9419;BME280;4748;50.802;7.132;2022-07-29T08:20:56;100920.34;;;25.85;61.31
9419;BME280;4748;50.802;7.132;2022-07-29T08:23:22;100915.78;;;26.03;61.20
9419;BME280;4748;50.802;7.132;2022-07-29T08:25:48;100929.34;;;26.29;59.62
9419;BME280;4748;50.802;7.132;2022-07-29T08:28:14;100929.78;;;26.53;57.80
9419;BME280;4748;50.802;7.132;2022-07-29T08:30:39;100928.84;;;26.66;59.09
9419;BME280;4748;50.802;7.132;2022-07-29T08:33:05;100922.75;;;26.30;59.42
9419;BME280;4748;50.802;7.132;2022-07-29T08:35:31;100923.38;;;26.36;58.75
9419;BME280;4748;50.802;7.132;2022-07-29T08:37:56;100922.91;;;26.04;60.50
9419;BME280;4748;50.802;7.132;2022-07-29T08:40:21;100921.28;;;26.33;59.81
9419;BME280;4748;50.802;7.132;2022-07-29T08:42:48;100922.06;;;26.64;58.43
9419;BME280;4748;50.802;7.132;2022-07-29T08:45:15;100919.69;;;26.79;57.47
9419;BME280;4748;50.802;7.132;2022-07-29T08:47:40;100918.22;;;26.81;56.94
9419;BME280;4748;50.802;7.132;2022-07-29T08:50:07;100908.75;;;26.49;57.52
9419;BME280;4748;50.802;7.132;2022-07-29T08:52:36;100913.59;;;26.21;56.50
9419;BME280;4748;50.802;7.132;2022-07-29T08:55:02;100914.84;;;26.37;57.87
9419;BME280;4748;50.802;7.132;2022-07-29T08:57:28;100912.91;;;26.38;57.61
9419;BME280;4748;50.802;7.132;2022-07-29T08:59:54;100915.25;;;26.61;56.80
9419;BME280;4748;50.802;7.132;2022-07-29T09:02:22;100909.97;;;26.73;56.65
9419;BME280;4748;50.802;7.132;2022-07-29T09:04:48;100911.44;;;26.87;54.67
9419;BME280;4748;50.802;7.132;2022-07-29T09:07:16;100911.50;;;27.46;54.04
9419;BME280;4748;50.802;7.132;2022-07-29T09:09:42;100903.28;;;27.55;53.43
9419;BME280;4748;50.802;7.132;2022-07-29T09:12:08;100902.78;;;27.27;53.39
9419;BME280;4748;50.802;7.132;2022-07-29T09:14:36;100902.16;;;27.64;52.63
9419;BME280;4748;50.802;7.132;2022-07-29T09:17:01;100903.25;;;27.80;51.74
9419;BME280;4748;50.802;7.132;2022-07-29T09:19:30;100901.69;;;27.62;51.35
9419;BME280;4748;50.802;7.132;2022-07-29T09:21:57;100906.34;;;27.70;52.18
9419;BME280;4748;50.802;7.132;2022-07-29T09:24:23;100911.22;;;27.56;51.32
9419;BME280;4748;50.802;7.132;2022-07-29T09:26:49;100908.47;;;27.23;52.12
9419;BME280;4748;50.802;7.132;2022-07-29T09:29:19;100912.16;;;27.01;51.82
9419;BME280;4748;50.802;7.132;2022-07-29T09:31:49;100911.03;;;27.78;51.01
9419;BME280;4748;50.802;7.132;2022-07-29T09:34:27;100904.25;;;27.67;49.97
9419;BME280;4748;50.802;7.132;2022-07-29T09:36:57;100907.31;;;27.66;50.96
9419;BME280;4748;50.802;7.132;2022-07-29T09:39:39;100901.34;;;27.55;52.17
9419;BME280;4748;50.802;7.132;2022-07-29T09:42:11;100904.97;;;28.01;51.67
9419;BME280;4748;50.802;7.132;2022-07-29T09:44:48;100908.44;;;27.73;51.68
9419;BME280;4748;50.802;7.132;2022-07-29T09:47:15;100898.91;;;27.45;53.25
9419;BME280;4748;50.802;7.132;2022-07-29T09:49:51;100899.56;;;27.42;54.13
9419;BME280;4748;50.802;7.132;2022-07-29T09:52:17;100902.31;;;27.51;53.83
9419;BME280;4748;50.802;7.132;2022-07-29T09:54:42;100908.78;;;27.29;53.80
9419;BME280;4748;50.802;7.132;2022-07-29T09:57:09;100907.16;;;27.28;54.74
9419;BME280;4748;50.802;7.132;2022-07-29T10:02:32;100902.13;;;27.39;53.29
9419;BME280;4748;50.802;7.132;2022-07-29T10:04:59;100905.84;;;27.51;53.74
9419;BME280;4748;50.802;7.132;2022-07-29T10:07:25;100905.84;;;27.51;53.57
9419;BME280;4748;50.802;7.132;2022-07-29T10:09:55;100905.03;;;27.68;52.67
9419;BME280;4748;50.802;7.132;2022-07-29T10:12:22;100899.84;;;27.75;52.86
9419;BME280;4748;50.802;7.132;2022-07-29T10:14:48;100900.69;;;27.67;53.05
9419;BME280;4748;50.802;7.132;2022-07-29T10:17:15;100904.75;;;27.52;53.32
9419;BME280;4748;50.802;7.132;2022-07-29T10:19:41;100900.06;;;27.61;53.00
9419;BME280;4748;50.802;7.132;2022-07-29T10:22:09;100900.38;;;27.68;53.18
9419;BME280;4748;50.802;7.132;2022-07-29T10:24:36;100901.16;;;27.43;53.04
9419;BME280;4748;50.802;7.132;2022-07-29T10:27:07;100896.81;;;27.59;53.26
9419;BME280;4748;50.802;7.132;2022-07-29T10:29:33;100894.75;;;28.19;51.90
9419;BME280;4748;50.802;7.132;2022-07-29T10:32:31;100897.97;;;28.29;51.28
9419;BME280;4748;50.802;7.132;2022-07-29T10:40:51;100895.41;;;28.16;50.61
9419;BME280;4748;50.802;7.132;2022-07-29T10:43:42;100906.19;;;28.66;50.61
9419;BME280;4748;50.802;7.132;2022-07-29T10:46:10;100892.88;;;28.77;50.80
9419;BME280;4748;50.802;7.132;2022-07-29T10:54:15;100894.44;;;28.86;49.72
9419;BME280;4748;50.802;7.132;2022-07-29T10:56:41;100895.56;;;28.85;49.29
9419;BME280;4748;50.802;7.132;2022-07-29T11:01:56;100906.88;;;28.63;50.06
9419;BME280;4748;50.802;7.132;2022-07-29T11:07:10;100893.75;;;28.69;50.11
9419;BME280;4748;50.802;7.132;2022-07-29T11:09:36;100904.63;;;28.57;49.95
9419;BME280;4748;50.802;7.132;2022-07-29T11:12:03;100885.19;;;28.53;49.79
9419;BME280;4748;50.802;7.132;2022-07-29T11:14:58;100886.56;;;28.76;48.35
9419;BME280;4748;50.802;7.132;2022-07-29T11:17:25;100893.00;;;28.51;49.55
9419;BME280;4748;50.802;7.132;2022-07-29T11:19:50;100882.16;;;28.75;49.91
9419;BME280;4748;50.802;7.132;2022-07-29T11:22:35;100892.47;;;28.58;47.91
9419;BME280;4748;50.802;7.132;2022-07-29T11:25:16;100897.19;;;28.20;47.94
9419;BME280;4748;50.802;7.132;2022-07-29T11:27:42;100899.34;;;28.43;48.56
9419;BME280;4748;50.802;7.132;2022-07-29T11:30:08;100890.38;;;28.55;47.99
9419;BME280;4748;50.802;7.132;2022-07-29T11:32:42;100896.16;;;28.70;47.00
9419;BME280;4748;50.802;7.132;2022-07-29T11:35:22;100896.06;;;28.87;46.36
9419;BME280;4748;50.802;7.132;2022-07-29T11:38:24;100888.56;;;28.59;46.73
9419;BME280;4748;50.802;7.132;2022-07-29T11:41:29;100889.09;;;28.52;45.52
9419;BME280;4748;50.802;7.132;2022-07-29T11:43:58;100889.75;;;28.49;46.40
9419;BME280;4748;50.802;7.132;2022-07-29T11:49:11;100889.00;;;28.40;47.07
9419;BME280;4748;50.802;7.132;2022-07-29T11:51:37;100886.63;;;28.88;47.27
9419;BME280;4748;50.802;7.132;2022-07-29T11:54:04;100885.31;;;28.94;46.64
9419;BME280;4748;50.802;7.132;2022-07-29T11:56:34;100873.31;;;28.90;46.08
9419;BME280;4748;50.802;7.132;2022-07-29T11:59:05;100883.16;;;28.71;46.26
9419;BME280;4748;50.802;7.132;2022-07-29T12:01:31;100879.56;;;28.79;46.69
9419;BME280;4748;50.802;7.132;2022-07-29T12:04:06;100881.41;;;29.15;44.49
9419;BME280;4748;50.802;7.132;2022-07-29T12:06:33;100878.03;;;29.10;45.52
9419;BME280;4748;50.802;7.132;2022-07-29T12:08:59;100879.13;;;28.97;45.53
9419;BME280;4748;50.802;7.132;2022-07-29T12:11:25;100882.31;;;28.79;44.92
9419;BME280;4748;50.802;7.132;2022-07-29T12:13:51;100889.03;;;28.89;45.29
9419;BME280;4748;50.802;7.132;2022-07-29T12:16:17;100884.94;;;28.67;45.36
9419;BME280;4748;50.802;7.132;2022-07-29T12:18:42;100880.09;;;28.64;46.16
9419;BME280;4748;50.802;7.132;2022-07-29T12:21:07;100886.91;;;28.37;45.52
9419;BME280;4748;50.802;7.132;2022-07-29T12:23:33;100891.16;;;28.27;45.92
9419;BME280;4748;50.802;7.132;2022-07-29T12:25:59;100889.41;;;28.22;46.10
9419;BME280;4748;50.802;7.132;2022-07-29T12:28:25;100888.41;;;28.55;46.10
9419;BME280;4748;50.802;7.132;2022-07-29T12:30:51;100888.81;;;28.37;46.01
9419;BME280;4748;50.802;7.132;2022-07-29T12:33:24;100892.75;;;28.73;45.08
9419;BME280;4748;50.802;7.132;2022-07-29T12:35:56;100870.22;;;28.91;44.85
9419;BME280;4748;50.802;7.132;2022-07-29T12:38:22;100877.63;;;28.99;45.50
9419;BME280;4748;50.802;7.132;2022-07-29T12:40:48;100881.88;;;28.97;45.29
9419;BME280;4748;50.802;7.132;2022-07-29T12:43:17;100877.03;;;29.14;44.78
9419;BME280;4748;50.802;7.132;2022-07-29T12:45:47;100878.38;;;29.49;44.53
9419;BME280;4748;50.802;7.132;2022-07-29T12:48:14;100884.88;;;29.33;44.37
9419;BME280;4748;50.802;7.132;2022-07-29T12:51:11;100868.28;;;29.12;43.11
9419;BME280;4748;50.802;7.132;2022-07-29T12:53:39;100873.31;;;29.10;45.19
9419;BME280;4748;50.802;7.132;2022-07-29T12:56:05;100874.13;;;28.90;44.96
9419;BME280;4748;50.802;7.132;2022-07-29T12:58:39;100872.31;;;28.94;44.48
9419;BME280;4748;50.802;7.132;2022-07-29T13:01:15;100862.84;;;29.04;45.83
9419;BME280;4748;50.802;7.132;2022-07-29T13:06:41;100865.50;;;28.92;44.81
9419;BME280;4748;50.802;7.132;2022-07-29T13:11:40;100869.69;;;28.98;45.51
9419;BME280;4748;50.802;7.132;2022-07-29T13:14:08;100862.75;;;28.92;45.04
9419;BME280;4748;50.802;7.132;2022-07-29T13:16:36;100866.47;;;28.96;45.31
9419;BME280;4748;50.802;7.132;2022-07-29T13:19:08;100867.13;;;28.93;44.95
9419;BME280;4748;50.802;7.132;2022-07-29T13:21:35;100871.69;;;28.89;45.91
9419;BME280;4748;50.802;7.132;2022-07-29T13:24:00;100873.72;;;28.80;45.70
9419;BME280;4748;50.802;7.132;2022-07-29T13:26:26;100873.59;;;28.97;46.19
9419;BME280;4748;50.802;7.132;2022-07-29T13:28:51;100875.34;;;29.01;45.55
9419;BME280;4748;50.802;7.132;2022-07-29T13:31:16;100872.97;;;29.12;45.95
9419;BME280;4748;50.802;7.132;2022-07-29T13:33:42;100877.28;;;28.81;46.11
9419;BME280;4748;50.802;7.132;2022-07-29T13:36:07;100873.59;;;28.97;45.33
9419;BME280;4748;50.802;7.132;2022-07-29T13:38:33;100860.75;;;29.01;45.68
9419;BME280;4748;50.802;7.132;2022-07-29T13:40:59;100858.13;;;29.04;44.53
9419;BME280;4748;50.802;7.132;2022-07-29T13:43:24;100866.59;;;28.99;44.56
9419;BME280;4748;50.802;7.132;2022-07-29T13:45:49;100869.09;;;29.13;44.78
9419;BME280;4748;50.802;7.132;2022-07-29T13:48:15;100866.94;;;29.38;45.16
9419;BME280;4748;50.802;7.132;2022-07-29T13:50:40;100864.44;;;29.45;44.11
9419;BME280;4748;50.802;7.132;2022-07-29T13:53:06;100862.97;;;29.48;44.16
9419;BME280;4748;50.802;7.132;2022-07-29T13:55:31;100868.69;;;29.02;43.54
9419;BME280;4748;50.802;7.132;2022-07-29T13:57:56;100859.53;;;29.31;44.18
9419;BME280;4748;50.802;7.132;2022-07-29T14:00:22;100862.91;;;29.16;43.27
9419;BME280;4748;50.802;7.132;2022-07-29T14:02:48;100861.75;;;29.17;43.87
9419;BME280;4748;50.802;7.132;2022-07-29T14:05:14;100859.28;;;29.24;44.16
9419;BME280;4748;50.802;7.132;2022-07-29T14:07:39;100857.03;;;29.17;43.28
9419;BME280;4748;50.802;7.132;2022-07-29T14:10:05;100852.31;;;28.97;43.85
9419;BME280;4748;50.802;7.132;2022-07-29T14:12:31;100857.84;;;28.77;43.84
9419;BME280;4748;50.802;7.132;2022-07-29T14:14:56;100864.72;;;28.91;44.03
9419;BME280;4748;50.802;7.132;2022-07-29T14:17:22;100863.31;;;28.85;43.71
9419;BME280;4748;50.802;7.132;2022-07-29T14:19:47;100864.91;;;28.86;43.69
9419;BME280;4748;50.802;7.132;2022-07-29T14:22:13;100867.25;;;28.76;43.47
9419;BME280;4748;50.802;7.132;2022-07-29T14:24:38;100864.44;;;29.05;43.12
9419;BME280;4748;50.802;7.132;2022-07-29T14:27:05;100863.91;;;29.11;42.58
9419;BME280;4748;50.802;7.132;2022-07-29T14:29:30;100863.16;;;29.23;42.81
9419;BME280;4748;50.802;7.132;2022-07-29T14:31:56;100865.09;;;29.02;43.65
9419;BME280;4748;50.802;7.132;2022-07-29T14:34:21;100873.72;;;29.21;42.98
9419;BME280;4748;50.802;7.132;2022-07-29T14:36:46;100868.94;;;29.09;43.28
9419;BME280;4748;50.802;7.132;2022-07-29T14:39:12;100878.09;;;29.01;42.89
9419;BME280;4748;50.802;7.132;2022-07-29T14:41:37;100870.91;;;29.29;43.40
9419;BME280;4748;50.802;7.132;2022-07-29T14:44:03;100863.50;;;29.41;44.03
9419;BME280;4748;50.802;7.132;2022-07-29T14:46:28;100882.28;;;29.28;44.48
9419;BME280;4748;50.802;7.132;2022-07-29T14:48:54;100883.84;;;29.17;45.04
9419;BME280;4748;50.802;7.132;2022-07-29T14:51:19;100879.84;;;29.06;45.42
9419;BME280;4748;50.802;7.132;2022-07-29T14:53:45;100874.19;;;29.23;45.14
9419;BME280;4748;50.802;7.132;2022-07-29T14:56:10;100876.69;;;29.16;45.66
9419;BME280;4748;50.802;7.132;2022-07-29T14:58:36;100879.38;;;29.24;45.86
9419;BME280;4748;50.802;7.132;2022-07-29T15:01:01;100888.16;;;29.46;45.01
9419;BME280;4748;50.802;7.132;2022-07-29T15:03:27;100880.78;;;29.50;44.79
9419;BME280;4748;50.802;7.132;2022-07-29T15:05:55;100872.50;;;29.50;45.45
9419;BME280;4748;50.802;7.132;2022-07-29T15:08:21;100887.34;;;29.26;45.66
9419;BME280;4748;50.802;7.132;2022-07-29T15:10:46;100884.28;;;29.19;45.72
9419;BME280;4748;50.802;7.132;2022-07-29T15:13:12;100879.81;;;29.35;45.68
9419;BME280;4748;50.802;7.132;2022-07-29T15:15:38;100884.63;;;29.17;45.13
9419;BME280;4748;50.802;7.132;2022-07-29T15:18:03;100896.09;;;29.28;45.65
9419;BME280;4748;50.802;7.132;2022-07-29T15:20:29;100891.84;;;29.10;45.16
9419;BME280;4748;50.802;7.132;2022-07-29T15:22:54;100897.66;;;28.88;45.72
9419;BME280;4748;50.802;7.132;2022-07-29T15:25:21;100899.00;;;28.82;46.51
9419;BME280;4748;50.802;7.132;2022-07-29T15:27:47;100893.47;;;28.82;46.48
9419;BME280;4748;50.802;7.132;2022-07-29T15:30:12;100898.91;;;28.70;46.87
9419;BME280;4748;50.802;7.132;2022-07-29T15:32:40;100887.53;;;29.00;45.95
9419;BME280;4748;50.802;7.132;2022-07-29T15:35:05;100887.53;;;29.00;46.15
9419;BME280;4748;50.802;7.132;2022-07-29T15:37:31;100876.81;;;28.99;46.64
9419;BME280;4748;50.802;7.132;2022-07-29T15:39:58;100881.97;;;29.29;46.03
9419;BME280;4748;50.802;7.132;2022-07-29T15:42:24;100874.97;;;29.32;45.53
9419;BME280;4748;50.802;7.132;2022-07-29T15:44:49;100879.91;;;29.18;45.94
9419;BME280;4748;50.802;7.132;2022-07-29T15:47:15;100886.09;;;29.15;46.69
9419;BME280;4748;50.802;7.132;2022-07-29T15:49:40;100879.47;;;28.95;46.95
9419;BME280;4748;50.802;7.132;2022-07-29T15:52:08;100876.91;;;29.11;46.26
9419;BME280;4748;50.802;7.132;2022-07-29T15:54:36;100875.06;;;29.15;46.26
9419;BME280;4748;50.802;7.132;2022-07-29T15:57:03;100878.44;;;29.00;46.33
9419;BME280;4748;50.802;7.132;2022-07-29T15:59:29;100877.63;;;29.20;46.08
9419;BME280;4748;50.802;7.132;2022-07-29T16:01:54;100875.56;;;29.17;46.13
9419;BME280;4748;50.802;7.132;2022-07-29T16:04:20;100881.81;;;29.05;45.57
9419;BME280;4748;50.802;7.132;2022-07-29T16:06:46;100878.31;;;29.17;45.65
9419;BME280;4748;50.802;7.132;2022-07-29T16:09:11;100874.66;;;29.25;45.12
9419;BME280;4748;50.802;7.132;2022-07-29T16:11:37;100881.38;;;28.95;45.67
9419;BME280;4748;50.802;7.132;2022-07-29T16:14:03;100876.16;;;29.02;45.65
9419;BME280;4748;50.802;7.132;2022-07-29T16:16:29;100877.50;;;28.96;45.45
9419;BME280;4748;50.802;7.132;2022-07-29T16:18:54;100861.66;;;29.34;45.60
9419;BME280;4748;50.802;7.132;2022-07-29T16:21:20;100867.22;;;29.45;45.36
9419;BME280;4748;50.802;7.132;2022-07-29T16:23:47;100877.50;;;29.57;45.32
9419;BME280;4748;50.802;7.132;2022-07-29T16:26:12;100868.41;;;29.56;44.09
9419;BME280;4748;50.802;7.132;2022-07-29T16:28:37;100878.88;;;29.63;43.98
9419;BME280;4748;50.802;7.132;2022-07-29T16:31:03;100876.53;;;29.73;44.03
9419;BME280;4748;50.802;7.132;2022-07-29T16:33:28;100878.00;;;29.71;44.17
9419;BME280;4748;50.802;7.132;2022-07-29T16:35:54;100882.94;;;29.65;43.69
9419;BME280;4748;50.802;7.132;2022-07-29T16:38:19;100884.88;;;29.33;44.48
9419;BME280;4748;50.802;7.132;2022-07-29T16:40:45;100888.06;;;29.14;44.04
9419;BME280;4748;50.802;7.132;2022-07-29T16:43:10;100884.25;;;28.78;44.84
9419;BME280;4748;50.802;7.132;2022-07-29T16:45:36;100893.84;;;28.43;45.39
9419;BME280;4748;50.802;7.132;2022-07-29T16:48:02;100894.22;;;28.33;45.09
9419;BME280;4748;50.802;7.132;2022-07-29T16:50:28;100891.41;;;28.79;44.31
9419;BME280;4748;50.802;7.132;2022-07-29T16:52:54;100889.81;;;28.98;43.83
9419;BME280;4748;50.802;7.132;2022-07-29T16:55:20;100900.69;;;28.66;44.91
9419;BME280;4748;50.802;7.132;2022-07-29T16:57:45;100890.81;;;28.94;44.06
9419;BME280;4748;50.802;7.132;2022-07-29T17:00:12;100905.69;;;28.81;44.27
9419;BME280;4748;50.802;7.132;2022-07-29T17:02:38;100889.94;;;29.02;43.85
9419;BME280;4748;50.802;7.132;2022-07-29T17:05:05;100903.34;;;28.91;43.49
9419;BME280;4748;50.802;7.132;2022-07-29T17:07:30;100911.13;;;28.89;44.23